M I D A S
Marine Information and Data Acquisition System
Tripno 695 of the Zeeleeuw from 2004-04-15 06:10:35 to 2004-04-15 15:07:12
Back to CruiseResearch ActivitiesStationsMapUnderway DataData graphs

EquipmentUnitsComment
TimeDGPSUTC
LatitudeDGPSDM.mWGS84
LongitudeDGPSDM.mWGS84
HeadingGyrodeg 
SOGDGPSknotsSpeed over ground
COGDGPSdegCourse over ground
DepthEcho soundermeters200 kHz
Missing or incorrect values are displayed as -999
Navigation data collected by the RV Zeeleeuw from 2004-04-15 06:10:35 to 2004-04-15 15:07:12
                                                                                    Next 1000 lines
Time Latitude Longitude Heading SOG COG Depth
2004-04-15 06:10:42 51°13.597 2°56.1 126.5   147 6.8
2004-04-15 06:10:46 51°13.597 2°56.1 125.8   103 6.8
2004-04-15 06:10:52 51°13.597 2°56.1 124.4   143 6.8
2004-04-15 06:10:56 51°13.597 2°56.1 122.4 0.1 184 6.8
2004-04-15 06:11:01 51°13.597 2°56.1 121.1 0.1 205 6.8
2004-04-15 06:11:06 51°13.596 2°56.1 119.7 0.1 188 6.8
2004-04-15 06:11:11 51°13.596 2°56.1 118.2 0.1 188 6.8
2004-04-15 06:11:16 51°13.596 2°56.1 116.7 0.1 180 6.9
2004-04-15 06:11:22 51°13.596 2°56.1 115.4 0.1 184 6.9
2004-04-15 06:11:26 51°13.596 2°56.099 114.5 0.2 248 6.9
2004-04-15 06:11:31 51°13.596 2°56.097 114 0.8 286 7
2004-04-15 06:11:36 51°13.597 2°56.095 113.9 1.2 288 7
2004-04-15 06:11:41 51°13.597 2°56.092 113.9 1.5 290 7
2004-04-15 06:11:46 51°13.598 2°56.088 114.4 1.9 290 7.3
2004-04-15 06:11:52 51°13.599 2°56.083 115 2.2 291 -999
2004-04-15 06:11:56 51°13.6 2°56.078 115.7 2.6 292 -999
2004-04-15 06:12:02 51°13.602 2°56.071 116 2.9 293 -999
2004-04-15 06:12:07 51°13.604 2°56.065 116.1 3.1 292 -999
2004-04-15 06:12:12 51°13.606 2°56.058 116.2 3.3 293 -999
2004-04-15 06:12:17 51°13.607 2°56.051 116.3 3.5 291 -999
2004-04-15 06:12:22 51°13.609 2°56.044 116.3 3.6 292 -999
2004-04-15 06:12:27 51°13.611 2°56.036 116.6 3.8 292 -999
2004-04-15 06:12:32 51°13.613 2°56.028 116.9 3.8 292 -999
2004-04-15 06:12:37 51°13.615 2°56.02 117.5 3.9 292 -999
2004-04-15 06:12:42 51°13.617 2°56.012 118.1 4.1 293 -999
2004-04-15 06:12:47 51°13.62 2°56.003 118.9 4.2 293 -999
2004-04-15 06:12:52 51°13.622 2°55.995 119.3 4.3 294 -999
2004-04-15 06:12:57 51°13.625 2°55.986 120.1 4.5 294 -999
2004-04-15 06:13:02 51°13.627 2°55.976 120.8 4.6 295 -999
2004-04-15 06:13:07 51°13.63 2°55.967 121.4 4.7 296 -999
2004-04-15 06:13:12 51°13.633 2°55.957 122 4.8 297 -999
2004-04-15 06:13:17 51°13.636 2°55.948 122.5 4.8 298 -999
2004-04-15 06:13:22 51°13.639 2°55.938 122.7 4.9 298 -999
2004-04-15 06:13:27 51°13.642 2°55.929 122.8 4.9 298 -999
2004-04-15 06:13:32 51°13.646 2°55.919 122.9 4.9 299 -999
2004-04-15 06:13:37 51°13.649 2°55.91 123.1 4.9 299 -999
2004-04-15 06:13:42 51°13.652 2°55.901 123.2 5 300 -999
2004-04-15 06:13:47 51°13.656 2°55.891 123.2 5 299 -999
2004-04-15 06:13:52 51°13.659 2°55.881 122.6 5 299 -999
2004-04-15 06:13:57 51°13.662 2°55.872 121.5 5 297 -999
2004-04-15 06:14:02 51°13.665 2°55.862 119.8 5 295 -999
2004-04-15 06:14:07 51°13.668 2°55.852 117.5 5 293 -999
2004-04-15 06:14:12 51°13.67 2°55.841 114.9 5 291 -999
2004-04-15 06:14:17 51°13.672 2°55.831 111.9 5 287 -999
2004-04-15 06:14:23 51°13.674 2°55.818 108.9 5 283 -999
2004-04-15 06:14:27 51°13.675 2°55.809 106.1 5 282 -999
2004-04-15 06:14:32 51°13.676 2°55.798 103.5 5 279 -999
2004-04-15 06:14:37 51°13.677 2°55.787 100.8 4.9 278 -999
2004-04-15 06:14:42 51°13.678 2°55.777 99 4.8 276 -999
2004-04-15 06:14:47 51°13.678 2°55.767 98.1 4.6 276 -999
2004-04-15 06:14:52 51°13.679 2°55.759 97.5 3.9 275 -999
2004-04-15 06:14:57 51°13.679 2°55.752 96.4 2.9 273 -999
2004-04-15 06:15:01 51°13.679 2°55.748 94.1 2.7 273 12
2004-04-15 06:15:06 51°13.679 2°55.745 92 1.5 273 12.4
2004-04-15 06:15:11 51°13.679 2°55.743 89.2 1 283 12.9
2004-04-15 06:15:16 51°13.68 2°55.742 85.2 0.6 300 13.1
2004-04-15 06:15:20 51°13.68 2°55.742 79.9 0.4 348 13.2
2004-04-15 06:15:26 51°13.681 2°55.743 73.8 0.8 37 13.4
2004-04-15 06:15:31 51°13.682 2°55.745 67.5 1.1 37 13.4
2004-04-15 06:15:36 51°13.684 2°55.747 60.9 1.4 38 13.4
2004-04-15 06:15:42 51°13.686 2°55.75 54.4 1.9 34 13.4
2004-04-15 06:15:46 51°13.688 2°55.752 48 2.2 32 13.5
2004-04-15 06:15:51 51°13.691 2°55.754 41.3 2.5 26 13.8
2004-04-15 06:15:56 51°13.695 2°55.756 34.8 2.6 23 14.2
2004-04-15 06:16:02 51°13.699 2°55.759 28.7 2.9 18 14.1
2004-04-15 06:16:06 51°13.703 2°55.76 22.9 3.1 13 14.1
2004-04-15 06:16:12 51°13.708 2°55.761 17.3 3.3 9 13.6
2004-04-15 06:16:16 51°13.712 2°55.762 11.6 3.4 6 13.6
2004-04-15 06:16:21 51°13.716 2°55.762 5.8 3.2 1 12.9
2004-04-15 06:16:26 51°13.721 2°55.761 0.8 3.2   12
2004-04-15 06:16:31 51°13.724 2°55.761 357.7 2.4 358 11.5
2004-04-15 06:16:36 51°13.727 2°55.761 355.1 1.9 2 11
2004-04-15 06:16:41 51°13.728 2°55.761 351.1 1.3   10.7
2004-04-15 06:16:46 51°13.729 2°55.762 347 0.6 26 10.6
2004-04-15 06:16:51 51°13.728 2°55.763 344.7 0.5 46 10.6
2004-04-15 06:16:56 51°13.728 2°55.765 343.4 0.5 46 10.8
2004-04-15 06:17:01 51°13.726 2°55.766 341.9 1 139 10.9
2004-04-15 06:17:07 51°13.725 2°55.768 340.7 0.8 129 -999
2004-04-15 06:17:12 51°13.725 2°55.769 339.6 0.6 125 -999
2004-04-15 06:17:17 51°13.725 2°55.77 338.1 0.4 100 -999
2004-04-15 06:17:22 51°13.726 2°55.769 335.6 0.7 351 -999
2004-04-15 06:17:27 51°13.728 2°55.767 330.3 1.5 338 -999
2004-04-15 06:17:32 51°13.732 2°55.763 323.6 2.7 323 5.3
2004-04-15 06:17:36 51°13.734 2°55.759 319.4 3.5 318 10.1
2004-04-15 06:17:42 51°13.74 2°55.75 317.8 4.2 317 9.3
2004-04-15 06:17:47 51°13.745 2°55.742 317.9 4.9 316 9.2
2004-04-15 06:17:51 51°13.75 2°55.734 318.5 6 315 9
2004-04-15 06:17:56 51°13.756 2°55.725 318.2 6.2 315 9
2004-04-15 06:18:01 51°13.763 2°55.715 318.8 5.2 316 9.2
2004-04-15 06:18:06 51°13.769 2°55.705 319.2 6.5 316 9.3
2004-04-15 06:18:11 51°13.776 2°55.695 319.9 6.5 316 9.2
2004-04-15 06:18:16 51°13.782 2°55.686 321.1 6.6 318 9.3
2004-04-15 06:18:21 51°13.789 2°55.676 322.9 6.6 319 9.3
2004-04-15 06:18:26 51°13.797 2°55.667 324.8 6.7 322 9.6
2004-04-15 06:18:32 51°13.806 2°55.656 327.3 6.7 324 9.9
2004-04-15 06:18:36 51°13.812 2°55.65 330 6.8 327 10.1
2004-04-15 06:18:41 51°13.82 2°55.641 332.8 6.8 328 10.1
2004-04-15 06:18:46 51°13.828 2°55.634 335.8 6.9 332 10.2
2004-04-15 06:18:51 51°13.837 2°55.627 338.2 7 333 10.1
2004-04-15 06:18:56 51°13.846 2°55.621 340.1 7 335 9.9
2004-04-15 06:19:02 51°13.856 2°55.614 341.6 7 336 9.9
2004-04-15 06:19:06 51°13.864 2°55.609 342.3 7.2 337 9.9
2004-04-15 06:19:11 51°13.873 2°55.602 342.3 7.2 337 9.6
2004-04-15 06:19:16 51°13.882 2°55.596 342.5 7.3 338 9.7
2004-04-15 06:19:22 51°13.894 2°55.59 343.2 7.3 338 9.7
2004-04-15 06:19:26 51°13.901 2°55.585 343.2 7.4 338 9.6
2004-04-15 06:19:31 51°13.911 2°55.578 343 7.4 338 9.6
2004-04-15 06:19:36 51°13.92 2°55.572 343.3 7.4 339 9.7
2004-04-15 06:19:41 51°13.93 2°55.566 343.9 7.5 339 9.7
2004-04-15 06:19:46 51°13.94 2°55.56 344.1 7.5 339 10
2004-04-15 06:19:51 51°13.949 2°55.554 344.2 7.5 339 10.3
2004-04-15 06:19:56 51°13.959 2°55.548 344.4 7.5 340 10.1
2004-04-15 06:20:02 51°13.971 2°55.542 345 7.6 340 10.3
2004-04-15 06:20:06 51°13.979 2°55.537 345 7.6 339 10.2
2004-04-15 06:20:11 51°13.989 2°55.531 344.3 7.6 339 10.3
2004-04-15 06:20:16 51°13.998 2°55.525 344.5 7.6 340 10
2004-04-15 06:20:22 51°14.01 2°55.518 344.7 7.6 339 10.2
2004-04-15 06:20:26 51°14.018 2°55.513 344 7.6 339 10.2
2004-04-15 06:20:31 51°14.028 2°55.506 343.6 7.6 338 10.4
2004-04-15 06:20:36 51°14.038 2°55.5 343.6 7.6 338 10.9
2004-04-15 06:20:40 51°14.046 2°55.495 343.6 7.6 338 11.1
2004-04-15 06:20:46 51°14.057 2°55.487 343.3 7.7 338 11.1
2004-04-15 06:20:51 51°14.067 2°55.48 342.7 7.7 337 11.1
2004-04-15 06:20:57 51°14.08 2°55.472 342.6 7.7 337 11.1
2004-04-15 06:21:01 51°14.088 2°55.467 343.3 8.2 338 11.2
2004-04-15 06:21:05 51°14.097 2°55.461 343.3 8.3 338 11.2
2004-04-15 06:21:11 51°14.11 2°55.452 343.1 8.3 338 11.3
2004-04-15 06:21:16 51°14.121 2°55.444 342.3 8.7 337 11.2
2004-04-15 06:21:22 51°14.134 2°55.434 341.4 8.8 336 11.1
2004-04-15 06:21:26 51°14.143 2°55.428 340.6 8.9 335 11.1
2004-04-15 06:21:31 51°14.154 2°55.419 339.5 9 333 11.1
2004-04-15 06:21:36 51°14.165 2°55.41 338 9 333 11.1
2004-04-15 06:21:41 51°14.176 2°55.4 336.2 9.1 331 11.1
2004-04-15 06:21:46 51°14.187 2°55.389 334.2 9.4 327 11.1
2004-04-15 06:21:51 51°14.198 2°55.377 332.1 9.6 325 11.1
2004-04-15 06:21:56 51°14.209 2°55.364 329.9 9.8 324 11.1
2004-04-15 06:22:02 51°14.222 2°55.347 328 9.9 322 11
2004-04-15 06:22:07 51°14.233 2°55.332 325.8 10.3 319 11
2004-04-15 06:22:11 51°14.241 2°55.319 323.8 10.4 318 11
2004-04-15 06:22:16 51°14.252 2°55.303 322.8 10.6 317 11
2004-04-15 06:22:21 51°14.263 2°55.286 321.8 10.7 316 11
2004-04-15 06:22:26 51°14.273 2°55.268 318.9 10.9 312 10.9
2004-04-15 06:22:31 51°14.282 2°55.249 315.9 11.2 309 11
2004-04-15 06:22:36 51°14.292 2°55.229 313.8 11.3 307 10.9
2004-04-15 06:22:42 51°14.303 2°55.205 312.1 11.4 307 10.9
2004-04-15 06:22:46 51°14.311 2°55.188 311.4 11.5 306 11.1
2004-04-15 06:22:51 51°14.32 2°55.167 310.5 11.7 304 11.1
2004-04-15 06:22:56 51°14.329 2°55.145 309.1 11.8 303 11.1
2004-04-15 06:23:01 51°14.338 2°55.122 308.2 11.9 303 11.1
2004-04-15 06:23:06 51°14.346 2°55.1 307.7 12 302 10.9
2004-04-15 06:23:11 51°14.356 2°55.077 307.5 12.2 302 10.7
2004-04-15 06:23:16 51°14.365 2°55.055 307.7 12.3 303 10.8
2004-04-15 06:23:21 51°14.374 2°55.031 307.9 12.5 303 10.8
2004-04-15 06:23:26 51°14.384 2°55.008 308.1 12.8 303 10.8
2004-04-15 06:23:31 51°14.394 2°54.983 308.2 13 302 10.6
2004-04-15 06:23:36 51°14.403 2°54.959 308 13 302 10.6
2004-04-15 06:23:42 51°14.414 2°54.928 306.7 13.2 301 10.7
2004-04-15 06:23:46 51°14.421 2°54.907 304.9 13.3 299 10.6
2004-04-15 06:23:51 51°14.431 2°54.882 304.8 13.5 300 10.6
2004-04-15 06:23:56 51°14.44 2°54.856 305.6 13.5 300 10.6
2004-04-15 06:24:02 51°14.451 2°54.824 305.8 13.6 300 10.6
2004-04-15 06:24:06 51°14.459 2°54.803 305.8 13.7 300 10.6
2004-04-15 06:24:11 51°14.468 2°54.777 305.3 13.7 299 10.6
2004-04-15 06:24:16 51°14.477 2°54.75 304.8 13.8 299 10.4
2004-04-15 06:24:22 51°14.488 2°54.718 304.4 13.8 298 10.5
2004-04-15 06:24:26 51°14.496 2°54.697 304.1 13.8 298 10.4
2004-04-15 06:24:31 51°14.505 2°54.67 304.1 13.8 298 10.6
2004-04-15 06:24:36 51°14.514 2°54.642 303.9 13.9 298 10.5
2004-04-15 06:24:41 51°14.523 2°54.615 303.9 13.9 298 10.7
2004-04-15 06:24:46 51°14.532 2°54.588 303.9 13.9 298 10.6
2004-04-15 06:24:51 51°14.541 2°54.561 303.9 13.9 298 10.6
2004-04-15 06:24:56 51°14.55 2°54.534 303.9 13.9 298 10.5
2004-04-15 06:25:01 51°14.559 2°54.507 304 13.9 298 10.6
2004-04-15 06:25:06 51°14.568 2°54.48 304.1 13.9 298 10.6
2004-04-15 06:25:11 51°14.577 2°54.452 304.3 13.9 298 10.6
2004-04-15 06:25:16 51°14.586 2°54.425 304.5 13.9 298 10.7
2004-04-15 06:25:21 51°14.595 2°54.398 304.6 14 298 10.8
2004-04-15 06:25:26 51°14.605 2°54.371 304.8 14 299 10.7
2004-04-15 06:25:32 51°14.616 2°54.339 304.8 14 298 10.5
2004-04-15 06:25:36 51°14.623 2°54.317 304.6 14 298 10.6
2004-04-15 06:25:41 51°14.632 2°54.29 304.2 14 298 10.6
2004-04-15 06:25:47 51°14.643 2°54.257 304.2 13.9 298 10.5
2004-04-15 06:25:51 51°14.65 2°54.235 304.3 13.9 298 10.6
2004-04-15 06:25:56 51°14.659 2°54.208 304.4 14 298 10.8
2004-04-15 06:26:02 51°14.67 2°54.175 304.7 13.9 298 10.8
2004-04-15 06:26:06 51°14.678 2°54.153 304.7 13.9 298 10.5
2004-04-15 06:26:11 51°14.687 2°54.126 304.6 13.9 298 10.6
2004-04-15 06:26:16 51°14.696 2°54.099 304.5 13.9 298 10.4
2004-04-15 06:26:21 51°14.705 2°54.072 304.3 13.9 298 10.2
2004-04-15 06:26:26 51°14.714 2°54.045 304.4 13.8 298 10.5
2004-04-15 06:26:31 51°14.723 2°54.018 304.8 13.8 299 10.4
2004-04-15 06:26:36 51°14.732 2°53.991 305.1 13.9 299 10.2
2004-04-15 06:26:42 51°14.743 2°53.959 305.2 13.9 298 10.1
2004-04-15 06:26:46 51°14.75 2°53.937 305.1 13.9 298 10.1
2004-04-15 06:26:51 51°14.759 2°53.91 304.6 13.8 297 10.1
2004-04-15 06:26:56 51°14.768 2°53.883 304.4 13.8 298 10
2004-04-15 06:27:01 51°14.777 2°53.856 304.3 13.8 297 10
2004-04-15 06:27:06 51°14.786 2°53.829 304.5 13.8 298 10.1
2004-04-15 06:27:12 51°14.797 2°53.797 304.8 13.9 298 10.1
2004-04-15 06:27:16 51°14.804 2°53.775 305.2 13.8 299 10.1
2004-04-15 06:27:21 51°14.813 2°53.748 305.5 13.9 298 9.9
2004-04-15 06:27:26 51°14.822 2°53.721 305.7 13.9 298 9.9
2004-04-15 06:27:31 51°14.831 2°53.694 305.5 13.9 298 10
2004-04-15 06:27:36 51°14.84 2°53.667 305.1 13.9 298 10
2004-04-15 06:27:42 51°14.851 2°53.634 304.9 13.9 298 9.8
2004-04-15 06:27:47 51°14.86 2°53.607 304.8 13.9 298 9.9
2004-04-15 06:27:52 51°14.869 2°53.58 304.7 13.9 298 9.9
2004-04-15 06:27:56 51°14.876 2°53.558 304.8 13.9 298 9.9
2004-04-15 06:28:01 51°14.885 2°53.531 305.3 13.9 298 9.9
2004-04-15 06:28:06 51°14.894 2°53.504 305.5 13.9 298 9.9
2004-04-15 06:28:11 51°14.904 2°53.477 305.7 14 298 10
2004-04-15 06:28:16 51°14.913 2°53.45 305.6 14 298 10
2004-04-15 06:28:21 51°14.922 2°53.422 305.4 14 298 10
2004-04-15 06:28:26 51°14.931 2°53.395 305.2 14 298 10
2004-04-15 06:28:31 51°14.94 2°53.367 304.9 14 297 10.1
2004-04-15 06:28:36 51°14.949 2°53.34 304.8 14 297 10.2
2004-04-15 06:28:42 51°14.96 2°53.307 304.8 14 298 10.4
2004-04-15 06:28:46 51°14.967 2°53.285 304.9 14.1 298 10.2
2004-04-15 06:28:51 51°14.976 2°53.258 305.1 14.1 298 10.2
2004-04-15 06:28:56 51°14.985 2°53.23 305.5 14 298 10.2
2004-04-15 06:29:02 51°14.996 2°53.197 305.5 14 298 10.2
2004-04-15 06:29:06 51°15.003 2°53.175 305.3 14 297 10.1
2004-04-15 06:29:11 51°15.012 2°53.148 304.4 14 296 10.1
2004-04-15 06:29:16 51°15.019 2°53.119 303 14 294 10.3
2004-04-15 06:29:22 51°15.029 2°53.085 301.5 14 294 10.2
2004-04-15 06:29:26 51°15.034 2°53.062 300.3 14 292 10.1
2004-04-15 06:29:31 51°15.042 2°53.034 299.4 14 292 10.3
2004-04-15 06:29:36 51°15.049 2°53.005 298.7 14 291 10.3
2004-04-15 06:29:42 51°15.057 2°52.97 298.4 14 291 10.2
2004-04-15 06:29:46 51°15.063 2°52.947 298.4 14.1 292 10.3
2004-04-15 06:29:51 51°15.07 2°52.918 298.5 14.1 292 10.4
2004-04-15 06:29:56 51°15.078 2°52.889 298.8 14 292 10.4
2004-04-15 06:30:01 51°15.085 2°52.86 298.9 14 291 10.5
2004-04-15 06:30:06 51°15.092 2°52.831 298.9 14 292 10.5
2004-04-15 06:30:12 51°15.1 2°52.797 298.9 14 292 10.6
2004-04-15 06:30:16 51°15.106 2°52.773 298.8 14.1 292 10.6
2004-04-15 06:30:21 51°15.113 2°52.745 298.9 14.1 292 10.7
2004-04-15 06:30:26 51°15.121 2°52.716 299 14.1 292 10.8
2004-04-15 06:30:31 51°15.128 2°52.687 299 14.1 292 10.8
2004-04-15 06:30:36 51°15.135 2°52.658 299 14.1 292 10.9
2004-04-15 06:30:41 51°15.143 2°52.629 299 14.1 292 10.9
2004-04-15 06:30:46 51°15.15 2°52.6 298.9 14.1 292 11
2004-04-15 06:30:51 51°15.157 2°52.571 298.7 14.1 292 11.1
2004-04-15 06:30:56 51°15.164 2°52.542 298.7 14.1 292 11.1
2004-04-15 06:31:02 51°15.173 2°52.507 298.7 14.1 292 11.2
2004-04-15 06:31:07 51°15.18 2°52.478 299 14.1 292 11.3
2004-04-15 06:31:11 51°15.186 2°52.455 299.1 14.1 292 11.3
2004-04-15 06:31:16 51°15.193 2°52.426 299 14.1 292 11.4
2004-04-15 06:31:22 51°15.202 2°52.392 298.9 14.1 292 11.4
2004-04-15 06:31:27 51°15.209 2°52.363 298.8 14.1 292 11.5
2004-04-15 06:31:31 51°15.215 2°52.34 298.9 14.1 292 11.5
2004-04-15 06:31:36 51°15.222 2°52.311 299 14.1 292 11.6
2004-04-15 06:31:42 51°15.231 2°52.276 298.9 14.1 292 11.6
2004-04-15 06:31:46 51°15.237 2°52.253 298.9 14.1 292 11.6
2004-04-15 06:31:51 51°15.244 2°52.224 299 14.1 292 11.7
2004-04-15 06:31:56 51°15.251 2°52.195 299 14.1 291 11.8
2004-04-15 06:32:01 51°15.258 2°52.165 298 14.1 291 11.8
2004-04-15 06:32:06 51°15.263 2°52.135 295.9 14.1 288 11.9
2004-04-15 06:32:11 51°15.269 2°52.105 294.1 14.1 286 11.9
2004-04-15 06:32:16 51°15.274 2°52.075 292.7 14.1 285 12
2004-04-15 06:32:22 51°15.28 2°52.039 291.6 14.1 285 12
2004-04-15 06:32:26 51°15.284 2°52.015 291.2 14.2 284 12.1
2004-04-15 06:32:31 51°15.288 2°51.984 290.5 14.2 284 12.1
2004-04-15 06:32:36 51°15.293 2°51.954 290.3 14.2 284 12.2
2004-04-15 06:32:41 51°15.298 2°51.923 290.2 14.2 284 12.3
2004-04-15 06:32:46 51°15.302 2°51.893 290.2 14.1 284 12.3
2004-04-15 06:32:51 51°15.307 2°51.862 290.4 14.1 285 12.3
2004-04-15 06:32:56 51°15.312 2°51.832 290.7 14.1 284 12.3
2004-04-15 06:33:01 51°15.317 2°51.801 290.3 14.2 283 12.5
2004-04-15 06:33:06 51°15.32 2°51.77 289 14.2 282 12.4
2004-04-15 06:33:11 51°15.323 2°51.739 286.7 14.2 279 12.4
2004-04-15 06:33:16 51°15.326 2°51.708 285.9 14.2 278 12.5
2004-04-15 06:33:22 51°15.328 2°51.671 284 14.2 277 12.6
2004-04-15 06:33:27 51°15.329 2°51.639 280.6 14.2 272 12.5
2004-04-15 06:33:31 51°15.329 2°51.615 277.7 14.2 269 12.5
2004-04-15 06:33:36 51°15.328 2°51.583 275.3 14.2 268 12.5
2004-04-15 06:33:42 51°15.325 2°51.546 272.1 14.3 265 12.6
2004-04-15 06:33:46 51°15.323 2°51.521 269.4 14.2 263 12.6
2004-04-15 06:33:51 51°15.32 2°51.489 267.2 14.3 261 12.6
2004-04-15 06:33:56 51°15.317 2°51.459 265.7 14.2 261 12.7
2004-04-15 06:34:02 51°15.312 2°51.421 264.9 14.3 259 12.7
2004-04-15 06:34:06 51°15.309 2°51.396 264 14.3 259 12.7
2004-04-15 06:34:11 51°15.305 2°51.365 263.6 14.3 258 12.7
2004-04-15 06:34:16 51°15.301 2°51.334 263.1 14.3 258 12.7
2004-04-15 06:34:21 51°15.297 2°51.303 263 14.3 258 12.7
2004-04-15 06:34:26 51°15.293 2°51.272 263.2 14.3 259 12.7
2004-04-15 06:34:31 51°15.29 2°51.241 263.5 14.4 259 12.7
2004-04-15 06:34:36 51°15.286 2°51.21 263.8 14.4 259 12.7
2004-04-15 06:34:41 51°15.282 2°51.179 264 14.4 260 12.7
2004-04-15 06:34:47 51°15.278 2°51.141 264.1 14.4 260 12.7
2004-04-15 06:34:51 51°15.275 2°51.116 264.2 14.3 260 12.8
2004-04-15 06:34:56 51°15.271 2°51.085 264.2 14.3 259 12.8
2004-04-15 06:35:02 51°15.267 2°51.048 264.2 14.4 260 12.8
2004-04-15 06:35:06 51°15.264 2°51.022 264.3 14.4 259 12.8
2004-04-15 06:35:11 51°15.261 2°50.991 264.7 14.4 259 12.9
2004-04-15 06:35:16 51°15.257 2°50.96 264.5 14.4 260 12.8
2004-04-15 06:35:22 51°15.253 2°50.923 264.5 14.4 260 12.9
2004-04-15 06:35:26 51°15.25 2°50.898 264.6 14.4 260 12.9
2004-04-15 06:35:31 51°15.247 2°50.866 265 14.4 260 12.9
2004-04-15 06:35:35 51°15.244 2°50.841 265.1 14.4 260 12.9
2004-04-15 06:35:42 51°15.239 2°50.797 265.1 14.4 260 12.9
2004-04-15 06:35:47 51°15.236 2°50.766 265.1 14.4 260 12.9
2004-04-15 06:35:51 51°15.233 2°50.741 264.9 14.4 260 12.9
2004-04-15 06:35:56 51°15.23 2°50.71 264.8 14.4 260 12.9
2004-04-15 06:36:02 51°15.225 2°50.672 264.5 14.4 260 12.9
2004-04-15 06:36:06 51°15.223 2°50.647 264.5 14.4 260 13
2004-04-15 06:36:11 51°15.219 2°50.616 265 14.4 260 12.9
2004-04-15 06:36:16 51°15.216 2°50.585 265 14.4 260 12.9
2004-04-15 06:36:21 51°15.213 2°50.553 265.1 14.4 260 12.9
2004-04-15 06:36:27 51°15.209 2°50.516 265.3 14.3 261 13
2004-04-15 06:36:32 51°15.206 2°50.485 265.5 14.3 260 13
2004-04-15 06:36:36 51°15.203 2°50.46 265.5 14.3 261 12.9
2004-04-15 06:36:41 51°15.2 2°50.429 265.4 14.3 260 13
2004-04-15 06:36:46 51°15.197 2°50.397 265.4 14.3 260 13
2004-04-15 06:36:51 51°15.194 2°50.366 265.4 14.3 261 13
2004-04-15 06:36:56 51°15.19 2°50.335 265.8 14.3 261 13
2004-04-15 06:37:02 51°15.187 2°50.297 265.7 14.3 261 13
2004-04-15 06:37:07 51°15.183 2°50.266 265.6 14.3 260 13
2004-04-15 06:37:12 51°15.18 2°50.234 265.4 14.3 261 13
2004-04-15 06:37:16 51°15.178 2°50.209 265.4 14.4 261 13
2004-04-15 06:37:22 51°15.174 2°50.172 265.8 14.3 261 13
2004-04-15 06:37:27 51°15.171 2°50.14 265.9 14.3 261 13
2004-04-15 06:37:32 51°15.168 2°50.109 265.9 14.3 261 13
2004-04-15 06:37:36 51°15.166 2°50.084 266 14.3 261 13
2004-04-15 06:37:41 51°15.163 2°50.053 265.8 14.3 261 13
2004-04-15 06:37:47 51°15.159 2°50.015 265.8 14.3 260 13
2004-04-15 06:37:51 51°15.156 2°49.99 265.5 14.3 261 13.1
2004-04-15 06:37:56 51°15.153 2°49.959 265.5 14.3 261 13
2004-04-15 06:38:01 51°15.15 2°49.928 265.5 14.3 261 13.1
2004-04-15 06:38:07 51°15.146 2°49.89 265.5 14.3 261 13.1
2004-04-15 06:38:11 51°15.144 2°49.865 265.4 14.3 261 13.1
2004-04-15 06:38:16 51°15.141 2°49.834 265.4 14.3 261 13.1
2004-04-15 06:38:21 51°15.138 2°49.803 265.6 14.3 261 13.1
2004-04-15 06:38:26 51°15.135 2°49.772 265.6 14.3 262 13.1
2004-04-15 06:38:31 51°15.132 2°49.74 266 14.3 261 13.1
2004-04-15 06:38:36 51°15.129 2°49.709 265.9 14.3 261 13.1
2004-04-15 06:38:41 51°15.126 2°49.678 265.8 14.3 261 13.1
2004-04-15 06:38:46 51°15.123 2°49.647 265.7 14.3 261 13.1
2004-04-15 06:38:51 51°15.12 2°49.616 265.7 14.3 261 13.1
2004-04-15 06:38:55 51°15.117 2°49.591 265.8 14.3 261 13.1
2004-04-15 06:39:01 51°15.114 2°49.554 266.2 14.2 262 13.1
2004-04-15 06:39:06 51°15.111 2°49.523 266.2 14.2 261 13.1
2004-04-15 06:39:11 51°15.108 2°49.491 266.2 14.2 262 13.1
2004-04-15 06:39:16 51°15.105 2°49.46 266.1 14.3 262 13.1
2004-04-15 06:39:21 51°15.102 2°49.429 266.2 14.3 261 13
2004-04-15 06:39:26 51°15.099 2°49.398 266.2 14.2 261 13
2004-04-15 06:39:32 51°15.096 2°49.361 266.2 14.2 261 13
2004-04-15 06:39:36 51°15.093 2°49.336 266.2 14.2 262 13.1
2004-04-15 06:39:42 51°15.09 2°49.298 266.3 14.2 262 13.1
2004-04-15 06:39:46 51°15.088 2°49.273 266.5 14.3 262 13.1
2004-04-15 06:39:51 51°15.085 2°49.242 266.4 14.3 262 13.1
2004-04-15 06:39:56 51°15.082 2°49.211 266.2 14.3 262 13.2
2004-04-15 06:40:01 51°15.079 2°49.18 266 14.2 262 13.1
2004-04-15 06:40:06 51°15.076 2°49.149 266 14.2 262 13.2
2004-04-15 06:40:11 51°15.074 2°49.118 266 14.2 262 13.2
2004-04-15 06:40:15 51°15.072 2°49.093 266.3 14.3 262 13.2
2004-04-15 06:40:22 51°15.068 2°49.049 266.5 14.3 262 13.2
2004-04-15 06:40:26 51°15.066 2°49.024 266.7 14.2 262 13.2
2004-04-15 06:40:31 51°15.063 2°48.993 266.2 14.2 262 13.2
2004-04-15 06:40:36 51°15.06 2°48.962 266.2 14.3 262 13.1
2004-04-15 06:40:41 51°15.057 2°48.93 266.4 14.3 263 13.1
2004-04-15 06:40:47 51°15.054 2°48.893 266.6 14.2 262 13.1
2004-04-15 06:40:51 51°15.052 2°48.868 266.1 14.2 262 13.1
2004-04-15 06:40:56 51°15.049 2°48.837 266.1 14.2 262 13.1
2004-04-15 06:41:01 51°15.046 2°48.806 265.9 14.2 261 13.1
2004-04-15 06:41:06 51°15.043 2°48.775 266 14.2 262 13.1
2004-04-15 06:41:12 51°15.04 2°48.737 266.3 14.2 262 13.1
2004-04-15 06:41:16 51°15.038 2°48.713 266.3 14.2 262 13.1
2004-04-15 06:41:21 51°15.035 2°48.681 266.1 14.2 262 13.1
2004-04-15 06:41:26 51°15.032 2°48.651 265.9 14.2 262 13.1
2004-04-15 06:41:31 51°15.029 2°48.62 266.3 14.1 261 13.1
2004-04-15 06:41:36 51°15.026 2°48.589 266.3 14.1 262 13.1
2004-04-15 06:41:41 51°15.022 2°48.558 264.4 14.1 261 13.2
2004-04-15 06:41:46 51°15.018 2°48.528 262.5 14.1 257 13.2
2004-04-15 06:41:51 51°15.013 2°48.497 261.2 14.1 256 13.2
2004-04-15 06:41:56 51°15.009 2°48.467 260.1 14.1 257 13.2
2004-04-15 06:42:01 51°15.004 2°48.437 259.6 14.1 256 13.2
2004-04-15 06:42:07 51°15.002 2°48.4 262.8 14 264 13.2
2004-04-15 06:42:11 51°15.001 2°48.375 267.3 14 266 13.2
2004-04-15 06:42:16 51°15.001 2°48.344 271.5 14 269 13.2
2004-04-15 06:42:21 51°15.001 2°48.313 274.7 14 271 13.3
2004-04-15 06:42:26 51°15.003 2°48.282 277.1 14 274 13.3
2004-04-15 06:42:31 51°15.004 2°48.251 278.8 14 275 13.3
2004-04-15 06:42:36 51°15.006 2°48.22 279.9 14.1 275 13.3
2004-04-15 06:42:42 51°15.009 2°48.183 280.7 14.1 275 13.4
2004-04-15 06:42:47 51°15.011 2°48.152 280.9 14.1 276 13.4
2004-04-15 06:42:51 51°15.013 2°48.127 281.2 14.1 276 13.4
2004-04-15 06:42:57 51°15.015 2°48.09 281 14.1 276 13.4
2004-04-15 06:43:02 51°15.018 2°48.059 280.8 14.1 276 13.5
2004-04-15 06:43:06 51°15.019 2°48.034 280.8 14.1 276 13.4
2004-04-15 06:43:12 51°15.022 2°47.997 281.1 14.1 277 13.5
2004-04-15 06:43:16 51°15.024 2°47.972 281.2 14.1 277 13.4
2004-04-15 06:43:22 51°15.026 2°47.935 281.1 14.1 276 13.5
2004-04-15 06:43:26 51°15.028 2°47.91 280.7 14.1 276 13.4
2004-04-15 06:43:31 51°15.03 2°47.879 280.7 14.1 277 13.3
2004-04-15 06:43:36 51°15.032 2°47.848 281 14.1 277 13.2
2004-04-15 06:43:40 51°15.034 2°47.823 281 14.1 277 13.2
2004-04-15 06:43:46 51°15.036 2°47.786 281.1 14.1 276 13
2004-04-15 06:43:51 51°15.038 2°47.755 280.6 14 275 12.8
2004-04-15 06:43:56 51°15.039 2°47.724 278 14.1 272 12.6
2004-04-15 06:44:01 51°15.039 2°47.693 275.8 14.1 271 12.3
2004-04-15 06:44:06 51°15.038 2°47.662 273.9 14 268 12
2004-04-15 06:44:12 51°15.037 2°47.625 272.7 14 267 12.2
2004-04-15 06:44:16 51°15.036 2°47.6 271.3 14 267 11.9
2004-04-15 06:44:22 51°15.035 2°47.563 271.1 14 267 11.5
2004-04-15 06:44:26 51°15.034 2°47.539 271.3 14 267 11.7
2004-04-15 06:44:31 51°15.033 2°47.508 271.3 14 267 11.4
2004-04-15 06:44:36 51°15.032 2°47.477 271.2 14 267 11
2004-04-15 06:44:41 51°15.031 2°47.446 271.1 14 267 10.6
2004-04-15 06:44:46 51°15.03 2°47.415 270.9 13.9 267 10.8
2004-04-15 06:44:51 51°15.028 2°47.385 270.6 13.8 266 10.5
2004-04-15 06:44:56 51°15.027 2°47.355 270 13.8 265 10.6
2004-04-15 06:45:01 51°15.025 2°47.324 269.9 13.8 265 10.4
2004-04-15 06:45:06 51°15.023 2°47.294 270 13.8 264 10.3
2004-04-15 06:45:11 51°15.02 2°47.264 268.4 13.8 261 9.9
2004-04-15 06:45:15 51°15.018 2°47.24 266.6 13.7 260 10.2
2004-04-15 06:45:22 51°15.013 2°47.198 265.6 13.7 260 10.1
2004-04-15 06:45:26 51°15.01 2°47.174 264.8 13.7 259 10
2004-04-15 06:45:31 51°15.006 2°47.145 264.4 13.7 259 10.1
2004-04-15 06:45:36 51°15.002 2°47.115 263.8 13.7 259 9.9
2004-04-15 06:45:42 51°14.998 2°47.079 263.5 13.7 259 9.8
2004-04-15 06:45:47 51°14.994 2°47.049 263.3 13.7 259 9.9
2004-04-15 06:45:52 51°14.99 2°47.02 263.9 13.7 258 9.8
2004-04-15 06:45:56 51°14.986 2°46.996 262.2 13.7 256 9.9
2004-04-15 06:46:02 51°14.982 2°46.961 261.7 13.7 258 9.7
2004-04-15 06:46:06 51°14.979 2°46.937 263.1 13.7 258 9.8
2004-04-15 06:46:11 51°14.976 2°46.907 264.6 13.7 261 9.8
2004-04-15 06:46:16 51°14.973 2°46.877 266.3 13.7 262 9.7
2004-04-15 06:46:21 51°14.971 2°46.847 267.8 13.7 263 9.7
2004-04-15 06:46:26 51°14.97 2°46.816 269 13.7 265 9.7
2004-04-15 06:46:31 51°14.968 2°46.786 270 13.8 266 9.7
2004-04-15 06:46:36 51°14.967 2°46.755 270.5 13.8 266 9.8
2004-04-15 06:46:42 51°14.966 2°46.719 270.8 13.8 267 9.8
2004-04-15 06:46:46 51°14.964 2°46.694 270.7 13.8 266 9.8
2004-04-15 06:46:51 51°14.963 2°46.664 270.2 13.9 265 9.8
2004-04-15 06:46:56 51°14.961 2°46.633 269.3 13.9 265 9.8
2004-04-15 06:47:02 51°14.959 2°46.596 268.6 13.9 264 9.8
2004-04-15 06:47:06 51°14.957 2°46.572 268.5 13.9 264 9.9
2004-04-15 06:47:11 51°14.955 2°46.542 268.5 13.9 264 9.9
2004-04-15 06:47:16 51°14.953 2°46.511 268.5 13.9 264 9.9
2004-04-15 06:47:22 51°14.951 2°46.474 268.5 13.9 264 10
2004-04-15 06:47:27 51°14.949 2°46.443 268.3 13.9 264 10.1
2004-04-15 06:47:31 51°14.947 2°46.419 267.9 13.9 263 10.1
2004-04-15 06:47:36 51°14.944 2°46.388 267.7 13.9 263 10.1
2004-04-15 06:47:42 51°14.942 2°46.352 267.7 14 264 10.2
2004-04-15 06:47:46 51°14.94 2°46.327 268.3 14 264 10.3
2004-04-15 06:47:51 51°14.939 2°46.296 269 14 265 10.4
2004-04-15 06:47:55 51°14.937 2°46.272 269.4 13.9 264 10.5
2004-04-15 06:48:02 51°14.933 2°46.229 269.1 13.9 264 10.5
2004-04-15 06:48:06 51°14.93 2°46.205 264.8 13.9 258 10.5
2004-04-15 06:48:11 51°14.925 2°46.175 262 14 255 10.7
2004-04-15 06:48:16 51°14.92 2°46.146 259.4 13.9 255 10.9
2004-04-15 06:48:21 51°14.914 2°46.116 258.5 13.9 253 10.9
2004-04-15 06:48:26 51°14.909 2°46.086 257.3 13.9 253 10.9
2004-04-15 06:48:31 51°14.903 2°46.057 256.9 13.9 252 11
2004-04-15 06:48:36 51°14.897 2°46.028 256.4 14 252 11.3
2004-04-15 06:48:41 51°14.891 2°45.998 256.7 14 253 11.3
2004-04-15 06:48:47 51°14.885 2°45.963 256.8 14 253 11.4
2004-04-15 06:48:51 51°14.88 2°45.939 257 14 253 11.5
2004-04-15 06:48:56 51°14.874 2°45.909 256.9 14 253 11.6
2004-04-15 06:49:01 51°14.869 2°45.88 257.5 14 253 11.6
2004-04-15 06:49:06 51°14.865 2°45.85 258.9 14 256 11.7
2004-04-15 06:49:11 51°14.861 2°45.819 260.6 14 256 11.9
2004-04-15 06:49:17 51°14.856 2°45.783 261.9 14 258 11.9
2004-04-15 06:49:22 51°14.853 2°45.753 262.7 13.9 259 12.1
2004-04-15 06:49:27 51°14.849 2°45.722 263.4 14 260 12.1
2004-04-15 06:49:31 51°14.846 2°45.698 264 14 260 12.2
2004-04-15 06:49:37 51°14.843 2°45.661 264.5 14 261 12.3
2004-04-15 06:49:42 51°14.839 2°45.631 264.6 14 260 12.4
2004-04-15 06:49:46 51°14.837 2°45.606 264.6 14 261 12.5
2004-04-15 06:49:51 51°14.833 2°45.576 264.2 14 261 12.5
2004-04-15 06:49:56 51°14.83 2°45.546 264.1 14 261 12.8
2004-04-15 06:50:02 51°14.826 2°45.509 263.8 14 261 12.8
2004-04-15 06:50:06 51°14.823 2°45.485 263.4 14 260 12.9
2004-04-15 06:50:11 51°14.82 2°45.455 263.8 14 260 13.1
2004-04-15 06:50:16 51°14.816 2°45.424 264.1 13.9 260 13.1
2004-04-15 06:50:21 51°14.813 2°45.394 264.1 13.9 260 13.3
2004-04-15 06:50:26 51°14.809 2°45.363 264.1 13.9 260 13.4
2004-04-15 06:50:31 51°14.806 2°45.333 264 13.9 260 13.5
2004-04-15 06:50:36 51°14.802 2°45.303 263.7 13.9 259 13.6
2004-04-15 06:50:42 51°14.798 2°45.267 263.4 13.9 259 13.7
2004-04-15 06:50:46 51°14.795 2°45.243 263.9 13.9 260 13.8
2004-04-15 06:50:52 51°14.791 2°45.206 263.6 13.9 260 13.9
2004-04-15 06:50:56 51°14.788 2°45.182 263.9 13.9 260 14.1
2004-04-15 06:51:01 51°14.785 2°45.152 264.5 13.9 261 14.2
2004-04-15 06:51:07 51°14.781 2°45.115 264.5 13.9 261 14.2
2004-04-15 06:51:11 51°14.779 2°45.091 264.9 13.9 261 14.4
2004-04-15 06:51:16 51°14.775 2°45.06 264.2 14 261 14.4
2004-04-15 06:51:21 51°14.772 2°45.03 264.2 14 261 14.5
2004-04-15 06:51:26 51°14.769 2°45 263.9 14 260 14.6
2004-04-15 06:51:31 51°14.765 2°44.969 263.8 14 260 14.7
2004-04-15 06:51:36 51°14.762 2°44.939 263.9 14 260 14.8
2004-04-15 06:51:42 51°14.758 2°44.902 264.4 14 261 15
2004-04-15 06:51:47 51°14.755 2°44.872 264.4 14 261 15
2004-04-15 06:51:51 51°14.752 2°44.847 264.6 14 261 15.1
2004-04-15 06:51:56 51°14.749 2°44.817 264.4 14 260 15.2
2004-04-15 06:52:01 51°14.746 2°44.786 264.3 14 261 15.4
2004-04-15 06:52:06 51°14.742 2°44.756 264 14 261 15.4
2004-04-15 06:52:11 51°14.739 2°44.725 263.9 14 260 15.5
2004-04-15 06:52:16 51°14.736 2°44.695 264.1 14 260 15.5
2004-04-15 06:52:22 51°14.732 2°44.658 264.2 14.1 261 15.6
2004-04-15 06:52:26 51°14.73 2°44.634 264.8 14 261 15.6
2004-04-15 06:52:31 51°14.726 2°44.603 264.3 14.1 260 15.6
2004-04-15 06:52:36 51°14.723 2°44.572 264.2 14.1 260 15.7
2004-04-15 06:52:42 51°14.719 2°44.535 264.2 14.1 260 15.7
2004-04-15 06:52:46 51°14.717 2°44.511 264.2 14 260 15.8
2004-04-15 06:52:51 51°14.713 2°44.48 264.1 14 260 15.8
2004-04-15 06:52:56 51°14.71 2°44.45 263.9 14.1 260 15.9
2004-04-15 06:53:01 51°14.707 2°44.419 263.9 14.1 260 16
2004-04-15 06:53:07 51°14.703 2°44.382 264.1 14 260 16.1
2004-04-15 06:53:11 51°14.7 2°44.358 264.1 14.1 260 16.2
2004-04-15 06:53:16 51°14.697 2°44.327 264 14.1 261 16.3
2004-04-15 06:53:21 51°14.694 2°44.297 264.2 14.1 261 16.4
2004-04-15 06:53:27 51°14.69 2°44.26 264.3 14 260 16.5
2004-04-15 06:53:31 51°14.687 2°44.235 264.1 14 260 16.7
2004-04-15 06:53:35 51°14.685 2°44.211 264 14.1 260 16.7
2004-04-15 06:53:42 51°14.681 2°44.168 264.4 14.1 261 16.8
2004-04-15 06:53:46 51°14.678 2°44.144 264.6 14 261 16.9
2004-04-15 06:53:51 51°14.675 2°44.113 264.3 14.1 260 16.9
2004-04-15 06:53:56 51°14.671 2°44.082 264 14.1 260 16.9
2004-04-15 06:54:02 51°14.667 2°44.045 263.9 14.1 260 17
2004-04-15 06:54:07 51°14.664 2°44.015 263.9 14 260 16.9
2004-04-15 06:54:11 51°14.661 2°43.99 264 14 260 16.9
2004-04-15 06:54:16 51°14.658 2°43.96 264 14 260 16.9
2004-04-15 06:54:21 51°14.655 2°43.929 264.1 14.1 261 17
2004-04-15 06:54:27 51°14.651 2°43.892 264.1 14.1 261 17.1
2004-04-15 06:54:32 51°14.648 2°43.862 264.1 14 260 17.1
2004-04-15 06:54:36 51°14.645 2°43.837 263.8 14.1 260 17.1
2004-04-15 06:54:41 51°14.642 2°43.806 263.9 14.1 261 17.2
2004-04-15 06:54:47 51°14.638 2°43.77 264.2 14 260 17.1
2004-04-15 06:54:51 51°14.636 2°43.745 264.1 14.1 261 17.3
2004-04-15 06:54:56 51°14.633 2°43.715 264.8 14.1 261 17.4
2004-04-15 06:55:01 51°14.63 2°43.684 264.7 14.1 261 17.5
2004-04-15 06:55:07 51°14.626 2°43.647 264.6 14.1 260 17.5
2004-04-15 06:55:11 51°14.623 2°43.623 263.9 14.1 260 17.6
2004-04-15 06:55:16 51°14.62 2°43.592 263.9 14.1 260 17.3
2004-04-15 06:55:22 51°14.616 2°43.556 263.9 14.1 260 17.4
2004-04-15 06:55:26 51°14.613 2°43.531 263.9 14 260 17.6
2004-04-15 06:55:32 51°14.61 2°43.494 263.8 14.1 261 17.9
2004-04-15 06:55:36 51°14.607 2°43.47 264.2 14.1 261 18
2004-04-15 06:55:42 51°14.603 2°43.433 264.4 14 261 18
2004-04-15 06:55:46 51°14.601 2°43.408 264.2 14.1 261 18.1
2004-04-15 06:55:51 51°14.598 2°43.378 264.4 14.1 261 18.2
2004-04-15 06:55:56 51°14.595 2°43.347 264.5 14 260 18.1
2004-04-15 06:56:01 51°14.591 2°43.317 264.1 14 261 18.1
2004-04-15 06:56:06 51°14.588 2°43.286 264 14 261 18
2004-04-15 06:56:11 51°14.585 2°43.255 264.1 14.1 261 18.3
2004-04-15 06:56:16 51°14.582 2°43.224 264.7 14.1 262 18.3
2004-04-15 06:56:22 51°14.579 2°43.188 264.9 14.1 262 18.2
2004-04-15 06:56:26 51°14.576 2°43.163 264.6 14 261 18.4
2004-04-15 06:56:32 51°14.572 2°43.127 264.5 14 261 18.5
2004-04-15 06:56:36 51°14.57 2°43.102 264 14 260 18.6
2004-04-15 06:56:42 51°14.566 2°43.065 263.8 14.1 261 18.7
2004-04-15 06:56:46 51°14.563 2°43.041 264.1 14 261 18.7
2004-04-15 06:56:52 51°14.56 2°43.004 264.2 14 261 18.5
2004-04-15 06:56:56 51°14.557 2°42.98 264.2 14 261 18.5
2004-04-15 06:57:01 51°14.554 2°42.949 264.1 14 261 18.4
2004-04-15 06:57:07 51°14.55 2°42.912 264 14 261 18.5
2004-04-15 06:57:11 51°14.548 2°42.888 264.4 14 260 18.4
2004-04-15 06:57:16 51°14.544 2°42.857 264.1 14 260 18.5
2004-04-15 06:57:21 51°14.541 2°42.827 263.6 14 260 18.4
2004-04-15 06:57:27 51°14.538 2°42.79 264.2 14 261 18.5
2004-04-15 06:57:31 51°14.535 2°42.766 264.5 14 260 18.5
2004-04-15 06:57:36 51°14.532 2°42.735 264.4 14 261 18.5
2004-04-15 06:57:42 51°14.528 2°42.699 264.1 14 260 18.3
2004-04-15 06:57:47 51°14.525 2°42.668 263.9 14 260 18.4
2004-04-15 06:57:51 51°14.522 2°42.643 263.8 14 260 18.3
2004-04-15 06:57:56 51°14.52 2°42.612 263.9 13.9 261 18.4
2004-04-15 06:58:02 51°14.517 2°42.574 264.3 14 261 18.3
2004-04-15 06:58:06 51°14.515 2°42.55 264.7 14 261 18.2
2004-04-15 06:58:12 51°14.512 2°42.513 264.4 14 261 18.2
2004-04-15 06:58:16 51°14.509 2°42.488 264.2 14 260 18.3
2004-04-15 06:58:21 51°14.506 2°42.458 263.9 14 260 18.1
2004-04-15 06:58:26 51°14.503 2°42.427 263.6 14 260 18.1
2004-04-15 06:58:31 51°14.5 2°42.396 263.6 14 261 18.2
2004-04-15 06:58:36 51°14.497 2°42.366 263.8 14 261 18
2004-04-15 06:58:41 51°14.494 2°42.335 264 14 260 18.1
2004-04-15 06:58:46 51°14.491 2°42.305 264.1 14 261 17.8
2004-04-15 06:58:51 51°14.488 2°42.274 264.2 14 261 17.7
2004-04-15 06:58:56 51°14.485 2°42.243 264.2 14 261 17.5
2004-04-15 06:59:01 51°14.482 2°42.213 264.2 14 261 17.5
2004-04-15 06:59:07 51°14.478 2°42.177 264.3 14 261 16.9
2004-04-15 06:59:11 51°14.476 2°42.152 264.6 14 262 16.6
2004-04-15 06:59:16 51°14.473 2°42.122 264.7 14 261 16.9
2004-04-15 06:59:22 51°14.469 2°42.086 264.4 14 261 17
2004-04-15 06:59:27 51°14.466 2°42.055 264.1 14 261 16.9
2004-04-15 06:59:31 51°14.463 2°42.031 263.9 14 261 16.8
2004-04-15 06:59:36 51°14.46 2°42 263.9 14 261 16.6
2004-04-15 06:59:42 51°14.456 2°41.964 264.1 14 261 16.5
2004-04-15 06:59:47 51°14.453 2°41.933 264.3 14 261 16.3
2004-04-15 06:59:51 51°14.451 2°41.909 264.4 13.9 261 16.2
2004-04-15 06:59:56 51°14.447 2°41.879 264 14 261 16.1
2004-04-15 07:00:01 51°14.444 2°41.849 263.9 14 261 15.9
2004-04-15 07:00:07 51°14.441 2°41.812 264.1 14 261 15.9
2004-04-15 07:00:11 51°14.438 2°41.788 264.4 13.9 261 15.6
2004-04-15 07:00:16 51°14.435 2°41.757 264.5 13.9 261 15.6
2004-04-15 07:00:21 51°14.432 2°41.727 264.5 13.9 261 15.6
2004-04-15 07:00:26 51°14.429 2°41.697 264.1 13.9 261 15.4
2004-04-15 07:00:31 51°14.426 2°41.666 264.1 13.9 261 15.4
2004-04-15 07:00:36 51°14.423 2°41.636 264 13.9 261 15.3
2004-04-15 07:00:41 51°14.42 2°41.605 263.6 13.9 260 15.1
2004-04-15 07:00:47 51°14.416 2°41.569 263.6 13.9 260 15.1
2004-04-15 07:00:51 51°14.414 2°41.545 263.7 13.9 260 15
2004-04-15 07:00:56 51°14.411 2°41.514 263.8 13.9 261 14.4
2004-04-15 07:01:01 51°14.407 2°41.484 264 13.9 261 13.7
2004-04-15 07:01:06 51°14.405 2°41.454 264.4 13.9 261 14.3
2004-04-15 07:01:11 51°14.402 2°41.423 264.5 13.9 261 14.6
2004-04-15 07:01:16 51°14.399 2°41.393 264.1 13.9 260 14.8
2004-04-15 07:01:22 51°14.395 2°41.356 263.7 13.9 260 14.9
2004-04-15 07:01:27 51°14.392 2°41.326 263.7 13.9 260 15
2004-04-15 07:01:31 51°14.389 2°41.302 263.6 13.9 260 15.1
2004-04-15 07:01:36 51°14.386 2°41.271 263.6 13.9 260 15.3
2004-04-15 07:01:41 51°14.383 2°41.24 263.8 13.9 260 15.5
2004-04-15 07:01:46 51°14.38 2°41.21 264 14 261 15.5
2004-04-15 07:01:51 51°14.377 2°41.179 264.5 13.9 261 15.6
2004-04-15 07:01:56 51°14.374 2°41.149 264.6 13.9 261 15.5
2004-04-15 07:02:01 51°14.371 2°41.118 264.1 13.9 261 15.1
2004-04-15 07:02:05 51°14.368 2°41.094 264.1 13.9 260 14.8
2004-04-15 07:02:11 51°14.365 2°41.058 264 13.9 261 15
2004-04-15 07:02:17 51°14.361 2°41.021 264.1 13.9 261 15.1
2004-04-15 07:02:21 51°14.359 2°40.997 264.2 13.9 261 15.2
2004-04-15 07:02:27 51°14.355 2°40.96 264.4 13.9 261 15.3
2004-04-15 07:02:31 51°14.353 2°40.936 264.5 13.9 261 15.1
2004-04-15 07:02:36 51°14.35 2°40.906 264.5 13.9 261 14.8
2004-04-15 07:02:41 51°14.347 2°40.875 264.5 13.9 261 14.7
2004-04-15 07:02:47 51°14.343 2°40.839 264.4 13.8 261 14.7
2004-04-15 07:02:51 51°14.34 2°40.815 264.1 13.9 260 14.8
2004-04-15 07:02:56 51°14.337 2°40.785 263.6 13.9 260 14.9
2004-04-15 07:03:01 51°14.334 2°40.755 264.1 13.9 261 14.8
2004-04-15 07:03:07 51°14.33 2°40.718 264.2 13.9 261 14.9
2004-04-15 07:03:11 51°14.328 2°40.694 264.1 13.9 261 14.7
2004-04-15 07:03:16 51°14.325 2°40.664 264.5 13.9 261 14.5
2004-04-15 07:03:21 51°14.322 2°40.634 264.8 13.9 261 14.3
2004-04-15 07:03:27 51°14.318 2°40.598 264.7 13.8 261 14.3
2004-04-15 07:03:31 51°14.315 2°40.574 264.2 13.8 260 13.9
2004-04-15 07:03:36 51°14.312 2°40.544 263.8 13.8 260 13.9
2004-04-15 07:03:42 51°14.308 2°40.508 263.9 13.8 260 14.1
2004-04-15 07:03:47 51°14.305 2°40.478 263.9 13.8 261 14.6
2004-04-15 07:03:52 51°14.302 2°40.447 263.9 13.8 261 14.8
2004-04-15 07:03:56 51°14.299 2°40.423 264.1 13.9 261 15.1
2004-04-15 07:04:02 51°14.296 2°40.387 264.8 13.9 261 15.1
2004-04-15 07:04:06 51°14.293 2°40.363 264.6 13.8 261 15.1
2004-04-15 07:04:11 51°14.29 2°40.333 264.3 13.8 261 15.1
2004-04-15 07:04:16 51°14.287 2°40.303 263.8 13.8 260 14.9
2004-04-15 07:04:21 51°14.284 2°40.273 264 13.8 261 14.7
2004-04-15 07:04:26 51°14.281 2°40.243 264 13.8 262 14.6
2004-04-15 07:04:31 51°14.278 2°40.213 264.7 13.8 261 14.5
2004-04-15 07:04:36 51°14.275 2°40.183 264.1 13.7 261 13.5
2004-04-15 07:04:41 51°14.271 2°40.153 264.1 13.7 261 12.3
2004-04-15 07:04:46 51°14.268 2°40.123 263.9 13.6 261 13.2
2004-04-15 07:04:51 51°14.265 2°40.094 264.1 13.6 260 14
2004-04-15 07:04:56 51°14.262 2°40.064 264 13.7 261 14.5
2004-04-15 07:05:01 51°14.259 2°40.034 264.3 13.8 261 14.6
2004-04-15 07:05:06 51°14.256 2°40.003 264.3 13.8 262 14.6
2004-04-15 07:05:11 51°14.253 2°39.973 264.8 13.8 261 14.6
2004-04-15 07:05:16 51°14.25 2°39.943 264.8 13.7 261 14.5
2004-04-15 07:05:21 51°14.247 2°39.914 264.6 13.7 260 14.3
2004-04-15 07:05:27 51°14.243 2°39.878 263.9 13.7 260 14.2
2004-04-15 07:05:31 51°14.24 2°39.854 263.6 13.7 259 14.1
2004-04-15 07:05:36 51°14.237 2°39.824 263.4 13.7 259 14.2
2004-04-15 07:05:41 51°14.233 2°39.795 263.4 13.7 260 14.2
2004-04-15 07:05:46 51°14.23 2°39.765 263.6 13.6 261 14.4
2004-04-15 07:05:51 51°14.227 2°39.735 264.3 13.6 261 14.5
2004-04-15 07:05:56 51°14.224 2°39.706 264.9 13.7 261 14.4
2004-04-15 07:06:02 51°14.221 2°39.67 265.3 13.7 261 14.5
2004-04-15 07:06:07 51°14.218 2°39.64 265.1 13.6 260 14.5
2004-04-15 07:06:11 51°14.215 2°39.617 264.4 13.6 260 14.5
2004-04-15 07:06:16 51°14.212 2°39.587 264.2 13.6 261 14.6
2004-04-15 07:06:21 51°14.209 2°39.557 264.5 13.6 261 14.3
2004-04-15 07:06:26 51°14.206 2°39.528 264.9 13.6 260 14.2
2004-04-15 07:06:31 51°14.203 2°39.498 264.5 13.6 260 14.1
2004-04-15 07:06:35 51°14.2 2°39.474 264 13.6 260 14.4
2004-04-15 07:06:41 51°14.196 2°39.439 263.6 13.6 260 14.1
2004-04-15 07:06:47 51°14.193 2°39.403 263.6 13.6 261 14.4
2004-04-15 07:06:51 51°14.19 2°39.38 264.1 13.7 261 14.5
2004-04-15 07:06:56 51°14.187 2°39.35 264.6 13.6 261 14.3
2004-04-15 07:07:01 51°14.184 2°39.32 264.8 13.6 261 14.4
2004-04-15 07:07:07 51°14.181 2°39.285 264.7 13.7 261 14.3
2004-04-15 07:07:11 51°14.178 2°39.261 264.3 13.6 261 14
2004-04-15 07:07:16 51°14.175 2°39.231 264.2 13.6 261 14.1
2004-04-15 07:07:21 51°14.172 2°39.201 264.2 13.7 261 14.1
2004-04-15 07:07:26 51°14.169 2°39.171 264.2 13.6 260 14.1
2004-04-15 07:07:31 51°14.165 2°39.142 264.3 13.6 259 13
2004-04-15 07:07:36 51°14.162 2°39.113 263.3 13.6 258 12.9
2004-04-15 07:07:41 51°14.158 2°39.083 263.3 13.6 259 12.6
2004-04-15 07:07:46 51°14.154 2°39.054 264 13.5 259 12.5
2004-04-15 07:07:51 51°14.151 2°39.024 264 13.6 259 12.8
2004-04-15 07:07:56 51°14.147 2°38.995 264.4 13.6 260 12.8
2004-04-15 07:08:01 51°14.144 2°38.965 264.9 13.7 259 13
2004-04-15 07:08:06 51°14.141 2°38.936 265.2 13.6 259 13.5
2004-04-15 07:08:11 51°14.137 2°38.906 264.7 13.6 259 13.2
2004-04-15 07:08:16 51°14.134 2°38.877 264.7 13.6 260 11.6
2004-04-15 07:08:21 51°14.13 2°38.847 264.9 13.6 259 12.4
2004-04-15 07:08:27 51°14.127 2°38.812 264.9 13.5 260 12.9
2004-04-15 07:08:31 51°14.124 2°38.789 264.9 13.5 260 13.2
2004-04-15 07:08:36 51°14.121 2°38.759 265 13.6 260 13.4
2004-04-15 07:08:41 51°14.117 2°38.729 264.9 13.7 260 14
2004-04-15 07:08:46 51°14.113 2°38.699 264.8 13.7 260 14
2004-04-15 07:08:51 51°14.109 2°38.67 264.2 13.7 258 14.7
2004-04-15 07:08:56 51°14.106 2°38.64 263.8 13.6 258 14.7
2004-04-15 07:09:01 51°14.1 2°38.612 261.2 13.6 255 15.5
2004-04-15 07:09:06 51°14.095 2°38.583 259.1 13.7 253 15.4
2004-04-15 07:09:11 51°14.089 2°38.554 257.1 13.7 251 15.9
2004-04-15 07:09:16 51°14.082 2°38.526 255.5 13.7 250 15.9
2004-04-15 07:09:21 51°14.075 2°38.498 254.2 13.7 249 16.2
2004-04-15 07:09:27 51°14.067 2°38.464 253.2 13.7 248 16.3
2004-04-15 07:09:31 51°14.061 2°38.441 252.9 13.7 248 16.4
2004-04-15 07:09:37 51°14.052 2°38.408 252.5 13.7 248 16.6
2004-04-15 07:09:41 51°14.046 2°38.386 251.4 13.7 246 16.7
2004-04-15 07:09:46 51°14.039 2°38.358 251 13.7 246 16.7
2004-04-15 07:09:51 51°14.031 2°38.331 250.4 13.7 246 16.8
2004-04-15 07:09:56 51°14.023 2°38.303 250.2 13.7 246 16.9
2004-04-15 07:10:02 51°14.014 2°38.27 249.9 13.7 245 16.8
2004-04-15 07:10:07 51°14.006 2°38.242 250 13.7 246 16.9
2004-04-15 07:10:11 51°14 2°38.22 250.4 13.7 247 17
2004-04-15 07:10:16 51°13.992 2°38.192 251.1 13.7 247 17.2
2004-04-15 07:10:21 51°13.985 2°38.165 251.1 13.7 247 17.3
2004-04-15 07:10:26 51°13.977 2°38.137 250.8 13.7 246 17
2004-04-15 07:10:31 51°13.97 2°38.109 250.4 13.7 246 16.9
2004-04-15 07:10:36 51°13.962 2°38.082 250.2 13.7 246 17
2004-04-15 07:10:41 51°13.954 2°38.054 250.3 13.7 247 17.2
2004-04-15 07:10:47 51°13.946 2°38.021 251 13.6 247 17.5
2004-04-15 07:10:51 51°13.94 2°37.999 251 13.6 247 16.3
2004-04-15 07:10:55 51°13.933 2°37.977 250.4 13.6 246 16.8
2004-04-15 07:11:01 51°13.924 2°37.943 250.4 13.6 246 17.3
2004-04-15 07:11:06 51°13.917 2°37.916 250.5 13.6 247 15.5
2004-04-15 07:11:12 51°13.908 2°37.882 250.9 13.6 247 14.8
2004-04-15 07:11:16 51°13.902 2°37.86 250.8 13.6 246 15.3
2004-04-15 07:11:21 51°13.894 2°37.833 250.4 13.6 246 16.6
2004-04-15 07:11:26 51°13.887 2°37.806 250.2 13.6 246 17.3
2004-04-15 07:11:31 51°13.879 2°37.778 250.2 13.7 247 17.6
2004-04-15 07:11:36 51°13.872 2°37.75 250.8 13.7 247 18
2004-04-15 07:11:41 51°13.864 2°37.722 250.9 13.7 247 18.3
2004-04-15 07:11:47 51°13.856 2°37.689 251.1 13.7 247 18.6
2004-04-15 07:11:51 51°13.85 2°37.666 251.1 13.7 247 18.6
2004-04-15 07:11:56 51°13.842 2°37.639 251.1 13.7 247 18.9
2004-04-15 07:12:02 51°13.833 2°37.605 251.1 13.7 247 19
2004-04-15 07:12:07 51°13.826 2°37.578 250.6 13.7 247 18.9
2004-04-15 07:12:11 51°13.82 2°37.555 250.7 13.7 247 18.7
2004-04-15 07:12:15 51°13.814 2°37.533 251 13.6 247 18.9
2004-04-15 07:12:21 51°13.805 2°37.5 251.1 13.6 247 18.9
2004-04-15 07:12:27 51°13.796 2°37.466 251 13.7 247 18.7
2004-04-15 07:12:32 51°13.788 2°37.439 250.7 13.7 247 19
2004-04-15 07:12:36 51°13.783 2°37.416 250.7 13.7 247 18.9
2004-04-15 07:12:41 51°13.775 2°37.389 250.7 13.7 247 18.9
2004-04-15 07:12:47 51°13.766 2°37.355 250.9 13.7 247 19.3
2004-04-15 07:12:51 51°13.76 2°37.333 251.1 13.7 247 19.2
2004-04-15 07:12:56 51°13.753 2°37.305 251.2 13.7 247 19.5
2004-04-15 07:13:01 51°13.746 2°37.277 251.3 13.7 248 19.5
2004-04-15 07:13:07 51°13.737 2°37.243 251.4 13.7 247 19.7
2004-04-15 07:13:11 51°13.731 2°37.221 251.4 13.6 247 19.3
2004-04-15 07:13:16 51°13.723 2°37.194 250.4 13.6 245 19.6
2004-04-15 07:13:22 51°13.713 2°37.161 248.9 13.6 244 19.2
2004-04-15 07:13:27 51°13.704 2°37.134 247.6 13.7 243 19.3
2004-04-15 07:13:31 51°13.698 2°37.113 247.1 13.6 243 19
2004-04-15 07:13:36 51°13.689 2°37.087 246.3 13.6 241 19
2004-04-15 07:13:42 51°13.678 2°37.055 245.6 13.6 242 19
2004-04-15 07:13:47 51°13.669 2°37.028 245.5 13.6 241 19.2
2004-04-15 07:13:51 51°13.662 2°37.007 245.3 13.6 242 19.5
2004-04-15 07:13:56 51°13.653 2°36.981 245.4 13.6 242 19.4
2004-04-15 07:14:02 51°13.643 2°36.949 246 13.6 242 19.4
2004-04-15 07:14:07 51°13.633 2°36.922 245.9 13.6 242 19
2004-04-15 07:14:11 51°13.626 2°36.901 245.4 13.6 242 19.4
2004-04-15 07:14:15 51°13.619 2°36.88 245.3 13.6 242 19
2004-04-15 07:14:21 51°13.608 2°36.848 245.5 13.6 242 19.2
2004-04-15 07:14:26 51°13.6 2°36.821 245.9 13.6 242 19.3
2004-04-15 07:14:31 51°13.591 2°36.795 246 13.6 242 18.9
2004-04-15 07:14:36 51°13.582 2°36.768 246 13.6 242 19.3
2004-04-15 07:14:41 51°13.573 2°36.741 245.9 13.6 242 19.2
2004-04-15 07:14:47 51°13.563 2°36.709 245.8 13.6 242 19
2004-04-15 07:14:51 51°13.556 2°36.688 245.8 13.6 242 19
2004-04-15 07:14:56 51°13.547 2°36.661 246 13.6 243 18.9
2004-04-15 07:15:01 51°13.539 2°36.635 246.3 13.6 243 19
2004-04-15 07:15:07 51°13.528 2°36.602 246.4 13.6 243 18.9
2004-04-15 07:15:11 51°13.521 2°36.581 246.4 13.6 243 18.8
2004-04-15 07:15:16 51°13.513 2°36.554 246.3 13.6 243 17.7
2004-04-15 07:15:21 51°13.504 2°36.528 246.2 13.6 243 16.6
2004-04-15 07:15:26 51°13.495 2°36.501 245.8 13.5 241 16.7
2004-04-15 07:15:31 51°13.486 2°36.475 245.1 13.5 242 17.2
2004-04-15 07:15:36 51°13.478 2°36.449 245.1 13.5 242 17.1
2004-04-15 07:15:42 51°13.467 2°36.417 245.9 13.5 243 17.5
2004-04-15 07:15:47 51°13.459 2°36.39 246.5 13.5 243 17.5
2004-04-15 07:15:51 51°13.452 2°36.369 246.6 13.5 243 17.7
2004-04-15 07:15:56 51°13.443 2°36.343 246.6 13.5 243 17.5
2004-04-15 07:16:02 51°13.432 2°36.312 244.5 13.5 239 17.3
2004-04-15 07:16:06 51°13.424 2°36.292 242.4 13.4 238 17.6
2004-04-15 07:16:11 51°13.414 2°36.267 240.9 13.4 238 17.7
2004-04-15 07:16:15 51°13.406 2°36.247 239.7 13.5 236 17.5
2004-04-15 07:16:22 51°13.391 2°36.213 238.7 13.5 235 17.1
2004-04-15 07:16:27 51°13.38 2°36.189 238 13.4 234 17.6
2004-04-15 07:16:31 51°13.371 2°36.169 237.3 13.4 234 17.7
2004-04-15 07:16:36 51°13.36 2°36.145 236.7 13.5 234 17.5
2004-04-15 07:16:41 51°13.349 2°36.121 236.6 13.5 233 17.3
2004-04-15 07:16:47 51°13.335 2°36.092 236.4 13.5 234 17.4
2004-04-15 07:16:51 51°13.327 2°36.073 236.4 13.5 234 17.3
2004-04-15 07:16:56 51°13.316 2°36.048 237.1 13.6 235 17
2004-04-15 07:17:01 51°13.305 2°36.024 238 13.6 235 17
2004-04-15 07:17:07 51°13.293 2°35.994 238.1 13.5 236 17
2004-04-15 07:17:12 51°13.282 2°35.97 238.3 13.5 235 17
2004-04-15 07:17:16 51°13.273 2°35.95 238.3 13.5 235 16.9
2004-04-15 07:17:22 51°13.26 2°35.92 238.3 13.5 236 17
2004-04-15 07:17:27 51°13.25 2°35.896 238.5 13.5 236 17
2004-04-15 07:17:31 51°13.241 2°35.876 238.5 13.5 235 17.2
2004-04-15 07:17:36 51°13.231 2°35.852 238.3 13.5 235 16.6
2004-04-15 07:17:42 51°13.218 2°35.822 238.3 13.5 235 16.7
2004-04-15 07:17:47 51°13.207 2°35.798 238.3 13.5 236 16.9
2004-04-15 07:17:51 51°13.199 2°35.778 238.5 13.5 235 16.7
2004-04-15 07:17:56 51°13.188 2°35.753 238.7 13.5 235 16.7
2004-04-15 07:18:02 51°13.176 2°35.724 238.7 13.5 235 16.7
2004-04-15 07:18:07 51°13.165 2°35.699 238.8 13.5 236 16.3
2004-04-15 07:18:11 51°13.157 2°35.68 238.8 13.6 236 16.6
2004-04-15 07:18:15 51°13.148 2°35.66 239 13.6 236 16.6
2004-04-15 07:18:21 51°13.135 2°35.631 239.2 13.6 236 16.3
2004-04-15 07:18:26 51°13.125 2°35.606 238.7 13.5 235 16.6
2004-04-15 07:18:31 51°13.114 2°35.581 238.5 13.5 235 16.4
2004-04-15 07:18:36 51°13.103 2°35.557 238.5 13.5 235 16.2
2004-04-15 07:18:41 51°13.092 2°35.532 238.7 13.6 235 16.5
2004-04-15 07:18:47 51°13.08 2°35.502 239.2 13.5 236 16.1
2004-04-15 07:18:51 51°13.071 2°35.483 239.4 13.5 236 15.9
2004-04-15 07:18:56 51°13.06 2°35.458 238.9 13.6 236 16
2004-04-15 07:19:01 51°13.05 2°35.433 239.1 13.6 236 15.5
2004-04-15 07:19:07 51°13.037 2°35.404 239.5 13.5 236 15.4
2004-04-15 07:19:11 51°13.029 2°35.384 239.3 13.5 236 15.2
2004-04-15 07:19:16 51°13.018 2°35.36 239 13.5 235 14.8
2004-04-15 07:19:21 51°13.007 2°35.335 238.8 13.5 235 14.7
2004-04-15 07:19:26 51°12.997 2°35.31 239.1 13.5 237 13.9
2004-04-15 07:19:31 51°12.987 2°35.286 239.4 13.4 236 14.3
2004-04-15 07:19:36 51°12.977 2°35.261 239.9 13.4 237 13.7
2004-04-15 07:19:41 51°12.967 2°35.236 240 13.4 236 14
2004-04-15 07:19:47 51°12.954 2°35.207 240 13.4 236 13.5
2004-04-15 07:19:51 51°12.946 2°35.187 239.5 13.4 236 13.4
2004-04-15 07:19:56 51°12.936 2°35.163 239.2 13.4 235 13.4
2004-04-15 07:20:01 51°12.925 2°35.138 238.9 13.4 235 13.1
2004-04-15 07:20:07 51°12.912 2°35.109 238.6 13.3 234 13.1
2004-04-15 07:20:11 51°12.904 2°35.09 238 13.4 235 13.4
2004-04-15 07:20:16 51°12.893 2°35.066 238.3 13.4 235 13.1
2004-04-15 07:20:21 51°12.882 2°35.041 238.7 13.4 236 13.5
2004-04-15 07:20:25 51°12.874 2°35.022 239.3 13.3 235 13.2
2004-04-15 07:20:31 51°12.861 2°34.993 238 13.3 233 13
2004-04-15 07:20:36 51°12.85 2°34.97 236.5 13.4 233 13.3
2004-04-15 07:20:41 51°12.838 2°34.947 235.8 13.4 232 13.3
2004-04-15 07:20:46 51°12.827 2°34.924 235.1 13.4 231 13.3
2004-04-15 07:20:51 51°12.815 2°34.901 234.6 13.3 231 13.5
2004-04-15 07:20:56 51°12.803 2°34.878 234.2 13.3 230 13.5
2004-04-15 07:21:01 51°12.792 2°34.855 233.8 13.3 231 13.5
2004-04-15 07:21:06 51°12.78 2°34.832 234.5 13.4 231 13.4
2004-04-15 07:21:11 51°12.768 2°34.809 234.9 13.4 232 13.6
2004-04-15 07:21:16 51°12.757 2°34.785 234.9 13.4 232 13.4
2004-04-15 07:21:22 51°12.743 2°34.758 235 13.4 232 13.9
2004-04-15 07:21:27 51°12.731 2°34.734 235 13.3 232 14.1
2004-04-15 07:21:31 51°12.722 2°34.716 235 13.3 231 13.9
2004-04-15 07:21:37 51°12.708 2°34.689 234.9 13.3 231 14.4
2004-04-15 07:21:41 51°12.699 2°34.67 234.6 13.3 231 14.3
2004-04-15 07:21:46 51°12.687 2°34.647 234.4 13.3 231 14.5
2004-04-15 07:21:51 51°12.676 2°34.625 234.4 13.3 231 14.9
2004-04-15 07:21:56 51°12.664 2°34.602 234.4 13.3 231 14.8
2004-04-15 07:22:02 51°12.65 2°34.574 234.4 13.3 231 15.2
2004-04-15 07:22:07 51°12.639 2°34.552 234.4 13.3 231 15.3
2004-04-15 07:22:12 51°12.627 2°34.53 234.1 13.3 231 14.9
2004-04-15 07:22:16 51°12.616 2°34.513 231.4 13.2 226 15.3
2004-04-15 07:22:21 51°12.603 2°34.493 229.2 13.2 225 15.5
2004-04-15 07:22:26 51°12.59 2°34.473 227.8 13.2 223 15.9
2004-04-15 07:22:31 51°12.576 2°34.453 226.8 13.1 223 15.7
2004-04-15 07:22:36 51°12.563 2°34.434 226.4 13.1 222 16.2
2004-04-15 07:22:42 51°12.547 2°34.411 225.6 13.1 221 16.3
2004-04-15 07:22:47 51°12.533 2°34.392 225.3 13.1 221 16.5
2004-04-15 07:22:51 51°12.522 2°34.377 225 13.1 221 16.5
2004-04-15 07:22:56 51°12.509 2°34.358 224.8 13.1 221 16.6
2004-04-15 07:23:02 51°12.492 2°34.335 224.9 13 221 16.4
2004-04-15 07:23:07 51°12.479 2°34.316 225 13 222 16.7
2004-04-15 07:23:11 51°12.468 2°34.301 225.2 13 222 16.8
2004-04-15 07:23:16 51°12.455 2°34.281 225.5 13.1 222 16.8
2004-04-15 07:23:21 51°12.441 2°34.262 225.7 13 222 16.8
2004-04-15 07:23:27 51°12.425 2°34.239 225.8 13 222 17.1
2004-04-15 07:23:31 51°12.415 2°34.224 225.7 13 222 17.1
2004-04-15 07:23:36 51°12.401 2°34.205 225.4 13 222 17.2
2004-04-15 07:23:41 51°12.387 2°34.186 225.4 13 222 17.3
2004-04-15 07:23:46 51°12.374 2°34.167 225.6 12.9 222 17.5
2004-04-15 07:23:51 51°12.361 2°34.147 225.9 13 223 17.7
2004-04-15 07:23:56 51°12.348 2°34.128 226.3 13 222 17.8
2004-04-15 07:24:02 51°12.332 2°34.105 226.1 13 223 18
2004-04-15 07:24:07 51°12.318 2°34.086 225.6 13 222 18.2
2004-04-15 07:24:11 51°12.308 2°34.07 225.4 13 222 18.3
2004-04-15 07:24:16 51°12.295 2°34.051 225.9 12.9 223 18.5
2004-04-15 07:24:21 51°12.282 2°34.032 226.2 12.9 222 18.5
2004-04-15 07:24:26 51°12.268 2°34.012 226 13 222 18.7
2004-04-15 07:24:31 51°12.255 2°33.993 225.8 13 222 18.9
2004-04-15 07:24:37 51°12.239 2°33.97 225.6 13 222 19
2004-04-15 07:24:41 51°12.228 2°33.955 225.6 12.9 222 19.1
2004-04-15 07:24:46 51°12.215 2°33.936 225.4 13 222 19.2
2004-04-15 07:24:51 51°12.202 2°33.916 225.4 13 223 19.3
2004-04-15 07:24:56 51°12.188 2°33.897 225.9 12.9 222 19.3
2004-04-15 07:25:02 51°12.173 2°33.874 225.9 12.9 222 19.4
2004-04-15 07:25:07 51°12.159 2°33.855 226.3 12.9 223 19.5
2004-04-15 07:25:11 51°12.149 2°33.839 226.3 12.9 223 19.5
2004-04-15 07:25:16 51°12.135 2°33.82 226.4 12.9 222 19.5
2004-04-15 07:25:21 51°12.122 2°33.801 226.3 12.9 222 19.5
2004-04-15 07:25:26 51°12.108 2°33.782 225.7 12.9 222 19.5
2004-04-15 07:25:31 51°12.095 2°33.762 225.4 12.9 222 19.5
2004-04-15 07:25:36 51°12.082 2°33.743 225.7 12.9 222 19.6
2004-04-15 07:25:41 51°12.068 2°33.724 225.9 12.9 222 19.5
2004-04-15 07:25:46 51°12.055 2°33.705 226.1 12.9 223 19.5
2004-04-15 07:25:51 51°12.042 2°33.685 226.3 12.9 223 19.7
2004-04-15 07:25:56 51°12.029 2°33.666 226.5 12.9 223 19.7
2004-04-15 07:26:02 51°12.014 2°33.644 226.5 12.7 223 19.7
2004-04-15 07:26:07 51°12.002 2°33.627 226.1 11.3 222 19.5
2004-04-15 07:26:11 51°11.993 2°33.615 225.6 11.3 222 19.5
2004-04-15 07:26:16 51°11.983 2°33.601 224.8 9.9 220 19.6
2004-04-15 07:26:22 51°11.971 2°33.588 222.4 9.2 217 19.6
2004-04-15 07:26:27 51°11.961 2°33.578 218.7 8.3 211 19.6
2004-04-15 07:26:31 51°11.953 2°33.572 215.7 7.8 208 19.6
2004-04-15 07:26:36 51°11.944 2°33.565 212 7.1 204 19.3
2004-04-15 07:26:41 51°11.935 2°33.56 208.6 7 202 19.3
2004-04-15 07:26:47 51°11.925 2°33.555 205.7 6.4 198 19.3
2004-04-15 07:26:51 51°11.918 2°33.552 203.4 6.1 195 19.2
2004-04-15 07:26:57 51°11.909 2°33.548 201.6 5.9 195 19.1
2004-04-15 07:27:01 51°11.903 2°33.546 200.4 5.7 193 19.1
2004-04-15 07:27:06 51°11.896 2°33.543 200.1 5.3 193 19
2004-04-15 07:27:11 51°11.889 2°33.541 200.1 5.1 193 19
2004-04-15 07:27:16 51°11.882 2°33.538 200.4 4.9 192 18.8
2004-04-15 07:27:21 51°11.876 2°33.536 201 4.8 193 18.8
2004-04-15 07:27:27 51°11.868 2°33.533 202.2 4.5 195 18.8
2004-04-15 07:27:31 51°11.864 2°33.531 203.8 4.5 196 18.6
2004-04-15 07:27:36 51°11.858 2°33.528 205.5 4.3 197 18.3
2004-04-15 07:27:42 51°11.852 2°33.524 207.5 4.1 200 18.3
2004-04-15 07:27:45 51°11.849 2°33.522 209.4 3.9 202 18.2
2004-04-15 07:27:51 51°11.843 2°33.518 210.8 3.8 203 18.1
2004-04-15 07:27:56 51°11.838 2°33.515 212.4 3.8 203 18.1
2004-04-15 07:28:02 51°11.833 2°33.511 213.1 3.7 204 18.1
2004-04-15 07:28:07 51°11.828 2°33.508 213.3 3.5 202 18
2004-04-15 07:28:11 51°11.825 2°33.506 212.8 3.4 203 17.9
2004-04-15 07:28:16 51°11.821 2°33.503 211.5 3.4 201 17.7
2004-04-15 07:28:22 51°11.815 2°33.5 210.4 3.3 200 17.8
2004-04-15 07:28:27 51°11.811 2°33.498 208.9 3.2 196 17.7
2004-04-15 07:28:31 51°11.808 2°33.497 207.1 3.2 196 17.7
2004-04-15 07:28:36 51°11.804 2°33.495 205.3 3.1 194 17.7
2004-04-15 07:28:42 51°11.799 2°33.493 204.3 3 193 17.6
2004-04-15 07:28:47 51°11.795 2°33.492 203.5 3 191 17.5
2004-04-15 07:28:51 51°11.792 2°33.491 203.1 2.9 192 17.1
2004-04-15 07:28:56 51°11.788 2°33.49 202.7 2.9 192 16.7
2004-04-15 07:29:01 51°11.784 2°33.489 202.4 2.8 190 16.6
2004-04-15 07:29:07 51°11.779 2°33.488 202.2 2.8 189 16.9
2004-04-15 07:29:11 51°11.776 2°33.487 202.1 2.7 189 16.7
2004-04-15 07:29:16 51°11.773 2°33.486 201.8 2.7 188 16.6
2004-04-15 07:29:21 51°11.769 2°33.485 201.8 2.7 189 16.8
2004-04-15 07:29:26 51°11.765 2°33.484 201.7 2.7 188 17.1
2004-04-15 07:29:31 51°11.761 2°33.483 201.7 2.7 188 16.9
2004-04-15 07:29:36 51°11.758 2°33.483 201.7 2.7 189 16.6
2004-04-15 07:29:41 51°11.754 2°33.482 201.8 2.7 189 16.5
2004-04-15 07:29:47 51°11.75 2°33.481 201.9 2.7 188 16.7
2004-04-15 07:29:51 51°11.747 2°33.48 202.1 2.6 188 17
2004-04-15 07:29:56 51°11.744 2°33.479 202.4 2.6 188 16.8
2004-04-15 07:30:02 51°11.739 2°33.478 202.5 2.6 189 16.4
2004-04-15 07:30:07 51°11.736 2°33.477 202.8 2.5 189 16.6
2004-04-15 07:30:11 51°11.733 2°33.476 203.2 2.5 189 16.9
2004-04-15 07:30:16 51°11.729 2°33.475 204 2.6 190 16.4
2004-04-15 07:30:22 51°11.725 2°33.474 204.5 2.7 191 16.6
2004-04-15 07:30:27 51°11.721 2°33.473 205.4 2.8 193 16.5
2004-04-15 07:30:31 51°11.718 2°33.471 206.5 2.8 193 16.4
2004-04-15 07:30:36 51°11.714 2°33.47 207.5 2.9 195 16.4
2004-04-15 07:30:42 51°11.71 2°33.467 208.6 2.9 195 16.2
2004-04-15 07:30:47 51°11.706 2°33.465 209.7 3 199 16.2
2004-04-15 07:30:51 51°11.703 2°33.463 210.9 3 199 16.1
2004-04-15 07:30:56 51°11.699 2°33.461 212 3 201 16.4
2004-04-15 07:31:01 51°11.695 2°33.459 213.1 3 202 15.9
2004-04-15 07:31:07 51°11.69 2°33.455 214.2 3.1 204 16.1
2004-04-15 07:31:11 51°11.687 2°33.453 215.4 3.1 205 15.8
2004-04-15 07:31:16 51°11.683 2°33.45 216.4 3.2 207 15.7
2004-04-15 07:31:21 51°11.679 2°33.447 217.7 3.2 208 15.6
2004-04-15 07:31:27 51°11.675 2°33.443 219 3.1 210 15.6
2004-04-15 07:31:31 51°11.672 2°33.44 220.3 3.2 212 15.3
2004-04-15 07:31:37 51°11.668 2°33.435 221.7 3.2 212 15.5
2004-04-15 07:31:41 51°11.665 2°33.432 223.1 3.2 214 15.2
2004-04-15 07:31:46 51°11.662 2°33.428 224.5 3.2 217 15.3
2004-04-15 07:31:51 51°11.658 2°33.423 225.8 3.2 217 15.2
2004-04-15 07:31:56 51°11.655 2°33.419 227.3 3.2 219 14.9
2004-04-15 07:32:02 51°11.651 2°33.413 228.6 3.2 221 14.9
2004-04-15 07:32:07 51°11.647 2°33.408 230 3.2 223 14.6
2004-04-15 07:32:11 51°11.645 2°33.405 231.5 3.2 224 14.4
2004-04-15 07:32:16 51°11.642 2°33.399 232.9 3.2 227 14.2
2004-04-15 07:32:21 51°11.639 2°33.394 234.3 3.2 227 14.1
2004-04-15 07:32:26 51°11.636 2°33.389 235.5 3.2 230 14.2
2004-04-15 07:32:31 51°11.633 2°33.384 236.7 3.2 230 14.2
2004-04-15 07:32:37 51°11.63 2°33.377 237.8 3.2 231 14.3
2004-04-15 07:32:41 51°11.628 2°33.372 238.6 3.2 232 14.3
2004-04-15 07:32:46 51°11.625 2°33.366 239.2 3.2 234 14.2
2004-04-15 07:32:51 51°11.623 2°33.361 239.8 3.2 233 14.4
2004-04-15 07:32:56 51°11.62 2°33.355 240.2 3.2 234 14.2
2004-04-15 07:33:02 51°11.617 2°33.348 240.5 3.2 235 14
2004-04-15 07:33:07 51°11.615 2°33.342 240.9 3.2 235 13.7
2004-04-15 07:33:12 51°11.612 2°33.337 241.2 3.2 235 13.7
2004-04-15 07:33:16 51°11.61 2°33.332 241.6 3.2 235 13.7
2004-04-15 07:33:21 51°11.608 2°33.326 242 3.2 237 13.8
2004-04-15 07:33:27 51°11.605 2°33.319 242.3 3.1 238 13.8
2004-04-15 07:33:31 51°11.603 2°33.315 242.7 3.1 237 13.9
2004-04-15 07:33:36 51°11.601 2°33.309 243.3 3.1 239 13.9
2004-04-15 07:33:41 51°11.599 2°33.303 244.4 3.1 239 14
2004-04-15 07:33:47 51°11.596 2°33.295 245.6 3.1 243 14
2004-04-15 07:33:51 51°11.595 2°33.29 246.9 3.1 242 14.2